sensor_id;sensor_type;location;lat;lon;timestamp;P1;durP1;ratioP1;P2;durP2;ratioP2
42600;SDS011;28229;48.856;9.088;2024-03-23T00:54:02;5.00;;;3.70;;
42600;SDS011;28229;48.856;9.088;2024-03-23T00:56:29;4.40;;;3.43;;
42600;SDS011;28229;48.856;9.088;2024-03-23T00:58:55;4.10;;;3.70;;
42600;SDS011;28229;48.856;9.088;2024-03-23T01:01:21;6.10;;;4.00;;
42600;SDS011;28229;48.856;9.088;2024-03-23T01:03:47;4.00;;;3.50;;
42600;SDS011;28229;48.856;9.088;2024-03-23T01:06:14;6.53;;;4.13;;
42600;SDS011;28229;48.856;9.088;2024-03-23T01:08:40;5.43;;;3.90;;
42600;SDS011;28229;48.856;9.088;2024-03-23T01:11:06;6.63;;;4.20;;
42600;SDS011;28229;48.856;9.088;2024-03-23T01:13:32;4.80;;;3.73;;
42600;SDS011;28229;48.856;9.088;2024-03-23T01:15:58;4.07;;;3.67;;
42600;SDS011;28229;48.856;9.088;2024-03-23T01:18:24;4.03;;;3.63;;
42600;SDS011;28229;48.856;9.088;2024-03-23T01:20:52;5.07;;;3.67;;
42600;SDS011;28229;48.856;9.088;2024-03-23T01:23:18;4.30;;;3.90;;
42600;SDS011;28229;48.856;9.088;2024-03-23T01:25:51;3.90;;;3.60;;
42600;SDS011;28229;48.856;9.088;2024-03-23T01:28:17;6.33;;;4.33;;
42600;SDS011;28229;48.856;9.088;2024-03-23T01:30:43;4.23;;;3.80;;
42600;SDS011;28229;48.856;9.088;2024-03-23T01:33:10;4.73;;;3.90;;
42600;SDS011;28229;48.856;9.088;2024-03-23T01:35:36;6.70;;;3.90;;
42600;SDS011;28229;48.856;9.088;2024-03-23T01:38:02;5.73;;;4.40;;
42600;SDS011;28229;48.856;9.088;2024-03-23T01:40:29;4.10;;;3.60;;
42600;SDS011;28229;48.856;9.088;2024-03-23T01:42:58;6.10;;;3.97;;
42600;SDS011;28229;48.856;9.088;2024-03-23T01:45:27;6.27;;;4.10;;
42600;SDS011;28229;48.856;9.088;2024-03-23T01:47:54;4.23;;;3.83;;
42600;SDS011;28229;48.856;9.088;2024-03-23T01:50:20;3.90;;;3.50;;
42600;SDS011;28229;48.856;9.088;2024-03-23T01:52:47;5.00;;;3.67;;
42600;SDS011;28229;48.856;9.088;2024-03-23T01:55:14;4.60;;;3.50;;
42600;SDS011;28229;48.856;9.088;2024-03-23T01:57:40;3.67;;;3.37;;
42600;SDS011;28229;48.856;9.088;2024-03-23T02:00:07;3.77;;;3.47;;
42600;SDS011;28229;48.856;9.088;2024-03-23T02:02:43;3.57;;;3.27;;
42600;SDS011;28229;48.856;9.088;2024-03-23T02:05:10;5.07;;;3.17;;
42600;SDS011;28229;48.856;9.088;2024-03-23T02:07:40;3.47;;;3.00;;
42600;SDS011;28229;48.856;9.088;2024-03-23T02:10:07;3.80;;;3.30;;
42600;SDS011;28229;48.856;9.088;2024-03-23T02:12:35;4.63;;;3.30;;
42600;SDS011;28229;48.856;9.088;2024-03-23T02:15:02;3.67;;;3.30;;
42600;SDS011;28229;48.856;9.088;2024-03-23T02:17:30;3.43;;;2.90;;
42600;SDS011;28229;48.856;9.088;2024-03-23T02:19:57;3.70;;;3.40;;
42600;SDS011;28229;48.856;9.088;2024-03-23T02:22:24;4.97;;;3.30;;
42600;SDS011;28229;48.856;9.088;2024-03-23T02:24:50;4.43;;;3.50;;
42600;SDS011;28229;48.856;9.088;2024-03-23T02:27:17;5.23;;;3.37;;
42600;SDS011;28229;48.856;9.088;2024-03-23T02:29:43;4.43;;;3.53;;
42600;SDS011;28229;48.856;9.088;2024-03-23T02:32:09;4.13;;;3.37;;
42600;SDS011;28229;48.856;9.088;2024-03-23T02:34:35;3.73;;;3.27;;
42600;SDS011;28229;48.856;9.088;2024-03-23T02:37:01;4.13;;;3.40;;
42600;SDS011;28229;48.856;9.088;2024-03-23T02:39:28;4.17;;;3.17;;
42600;SDS011;28229;48.856;9.088;2024-03-23T02:41:54;4.17;;;3.43;;
42600;SDS011;28229;48.856;9.088;2024-03-23T02:44:20;4.23;;;3.20;;
42600;SDS011;28229;48.856;9.088;2024-03-23T02:46:46;3.93;;;3.40;;
42600;SDS011;28229;48.856;9.088;2024-03-23T02:49:12;3.43;;;3.00;;
42600;SDS011;28229;48.856;9.088;2024-03-23T02:51:39;5.20;;;2.90;;
42600;SDS011;28229;48.856;9.088;2024-03-23T02:54:05;3.77;;;3.10;;
42600;SDS011;28229;48.856;9.088;2024-03-23T02:56:32;3.63;;;2.93;;
42600;SDS011;28229;48.856;9.088;2024-03-23T02:58:58;3.10;;;2.53;;
42600;SDS011;28229;48.856;9.088;2024-03-23T03:01:24;5.00;;;3.07;;
42600;SDS011;28229;48.856;9.088;2024-03-23T03:03:51;3.00;;;2.70;;
42600;SDS011;28229;48.856;9.088;2024-03-23T03:06:24;3.33;;;2.73;;
42600;SDS011;28229;48.856;9.088;2024-03-23T03:08:53;2.80;;;2.50;;
42600;SDS011;28229;48.856;9.088;2024-03-23T03:11:19;3.63;;;2.93;;
42600;SDS011;28229;48.856;9.088;2024-03-23T03:13:46;3.57;;;3.07;;
42600;SDS011;28229;48.856;9.088;2024-03-23T03:16:12;3.13;;;2.90;;
42600;SDS011;28229;48.856;9.088;2024-03-23T03:18:38;3.20;;;2.90;;
42600;SDS011;28229;48.856;9.088;2024-03-23T03:21:06;4.47;;;2.67;;
42600;SDS011;28229;48.856;9.088;2024-03-23T03:23:39;4.57;;;3.10;;
42600;SDS011;28229;48.856;9.088;2024-03-23T03:26:06;3.37;;;2.90;;
42600;SDS011;28229;48.856;9.088;2024-03-23T03:28:32;4.10;;;3.23;;
42600;SDS011;28229;48.856;9.088;2024-03-23T03:30:59;3.83;;;3.10;;
42600;SDS011;28229;48.856;9.088;2024-03-23T03:33:26;3.67;;;2.83;;
42600;SDS011;28229;48.856;9.088;2024-03-23T03:35:53;3.30;;;2.97;;
42600;SDS011;28229;48.856;9.088;2024-03-23T03:38:19;3.30;;;2.87;;
42600;SDS011;28229;48.856;9.088;2024-03-23T03:40:45;3.93;;;3.10;;
42600;SDS011;28229;48.856;9.088;2024-03-23T03:43:12;3.73;;;3.10;;
42600;SDS011;28229;48.856;9.088;2024-03-23T03:45:38;3.17;;;2.80;;
42600;SDS011;28229;48.856;9.088;2024-03-23T03:48:04;3.50;;;3.20;;
42600;SDS011;28229;48.856;9.088;2024-03-23T03:50:31;3.10;;;2.80;;
42600;SDS011;28229;48.856;9.088;2024-03-23T03:52:57;3.83;;;3.00;;
42600;SDS011;28229;48.856;9.088;2024-03-23T03:55:23;5.43;;;3.00;;
42600;SDS011;28229;48.856;9.088;2024-03-23T03:57:49;3.00;;;2.80;;
42600;SDS011;28229;48.856;9.088;2024-03-23T04:00:15;4.47;;;3.00;;
42600;SDS011;28229;48.856;9.088;2024-03-23T04:02:42;4.47;;;3.17;;
42600;SDS011;28229;48.856;9.088;2024-03-23T04:05:08;3.40;;;2.90;;
42600;SDS011;28229;48.856;9.088;2024-03-23T04:07:34;3.77;;;3.03;;
42600;SDS011;28229;48.856;9.088;2024-03-23T04:10:00;3.20;;;2.90;;
42600;SDS011;28229;48.856;9.088;2024-03-23T04:12:26;2.90;;;2.60;;
42600;SDS011;28229;48.856;9.088;2024-03-23T04:14:52;3.80;;;2.97;;
42600;SDS011;28229;48.856;9.088;2024-03-23T04:17:19;4.20;;;3.00;;
42600;SDS011;28229;48.856;9.088;2024-03-23T04:19:46;5.07;;;3.37;;
42600;SDS011;28229;48.856;9.088;2024-03-23T04:22:12;3.83;;;3.43;;
42600;SDS011;28229;48.856;9.088;2024-03-23T04:24:38;4.60;;;3.17;;
42600;SDS011;28229;48.856;9.088;2024-03-23T04:27:04;4.20;;;3.60;;
42600;SDS011;28229;48.856;9.088;2024-03-23T04:29:30;4.60;;;4.07;;
42600;SDS011;28229;48.856;9.088;2024-03-23T04:31:56;6.93;;;4.90;;
42600;SDS011;28229;48.856;9.088;2024-03-23T04:34:23;9.03;;;5.57;;
42600;SDS011;28229;48.856;9.088;2024-03-23T04:36:49;8.70;;;7.17;;
42600;SDS011;28229;48.856;9.088;2024-03-23T04:39:15;10.97;;;7.80;;
42600;SDS011;28229;48.856;9.088;2024-03-23T04:41:41;9.13;;;8.03;;
42600;SDS011;28229;48.856;9.088;2024-03-23T04:44:07;10.80;;;8.07;;
42600;SDS011;28229;48.856;9.088;2024-03-23T04:46:34;12.30;;;8.70;;
42600;SDS011;28229;48.856;9.088;2024-03-23T04:49:00;15.23;;;10.30;;
42600;SDS011;28229;48.856;9.088;2024-03-23T04:51:26;14.27;;;10.77;;
42600;SDS011;28229;48.856;9.088;2024-03-23T04:53:52;15.30;;;11.53;;
42600;SDS011;28229;48.856;9.088;2024-03-23T04:56:18;14.80;;;11.90;;
42600;SDS011;28229;48.856;9.088;2024-03-23T04:58:44;15.23;;;12.17;;
42600;SDS011;28229;48.856;9.088;2024-03-23T05:01:11;17.37;;;12.43;;
42600;SDS011;28229;48.856;9.088;2024-03-23T05:03:37;17.27;;;12.43;;
42600;SDS011;28229;48.856;9.088;2024-03-23T05:06:04;15.50;;;12.00;;
42600;SDS011;28229;48.856;9.088;2024-03-23T05:08:31;15.43;;;11.80;;
42600;SDS011;28229;48.856;9.088;2024-03-23T05:10:57;14.57;;;11.67;;
42600;SDS011;28229;48.856;9.088;2024-03-23T05:13:23;16.97;;;11.90;;
42600;SDS011;28229;48.856;9.088;2024-03-23T05:15:53;16.23;;;12.17;;
42600;SDS011;28229;48.856;9.088;2024-03-23T05:18:20;17.33;;;12.53;;
42600;SDS011;28229;48.856;9.088;2024-03-23T05:20:47;15.93;;;12.77;;
42600;SDS011;28229;48.856;9.088;2024-03-23T05:23:13;16.47;;;12.37;;
42600;SDS011;28229;48.856;9.088;2024-03-23T05:25:39;15.40;;;12.33;;
42600;SDS011;28229;48.856;9.088;2024-03-23T05:28:05;16.90;;;12.07;;
42600;SDS011;28229;48.856;9.088;2024-03-23T05:30:32;17.50;;;12.00;;
42600;SDS011;28229;48.856;9.088;2024-03-23T05:32:59;18.10;;;12.53;;
42600;SDS011;28229;48.856;9.088;2024-03-23T05:35:25;14.97;;;12.43;;
42600;SDS011;28229;48.856;9.088;2024-03-23T05:37:51;15.37;;;11.77;;
42600;SDS011;28229;48.856;9.088;2024-03-23T05:40:17;15.00;;;11.43;;
42600;SDS011;28229;48.856;9.088;2024-03-23T05:42:43;14.20;;;10.87;;
42600;SDS011;28229;48.856;9.088;2024-03-23T05:45:10;10.07;;;8.00;;
42600;SDS011;28229;48.856;9.088;2024-03-23T05:47:37;8.03;;;6.33;;
42600;SDS011;28229;48.856;9.088;2024-03-23T05:50:03;8.13;;;6.43;;
42600;SDS011;28229;48.856;9.088;2024-03-23T05:52:30;8.23;;;6.20;;
42600;SDS011;28229;48.856;9.088;2024-03-23T05:54:56;8.47;;;6.73;;
42600;SDS011;28229;48.856;9.088;2024-03-23T05:57:22;9.43;;;7.03;;
42600;SDS011;28229;48.856;9.088;2024-03-23T05:59:48;6.33;;;5.53;;
42600;SDS011;28229;48.856;9.088;2024-03-23T06:02:14;7.37;;;5.87;;
42600;SDS011;28229;48.856;9.088;2024-03-23T06:04:40;8.20;;;5.70;;
42600;SDS011;28229;48.856;9.088;2024-03-23T06:07:07;7.03;;;5.40;;
42600;SDS011;28229;48.856;9.088;2024-03-23T06:09:35;7.43;;;5.10;;
42600;SDS011;28229;48.856;9.088;2024-03-23T06:12:01;6.03;;;4.83;;
42600;SDS011;28229;48.856;9.088;2024-03-23T06:14:28;5.97;;;4.43;;
42600;SDS011;28229;48.856;9.088;2024-03-23T06:16:54;5.33;;;4.20;;
42600;SDS011;28229;48.856;9.088;2024-03-23T06:19:20;4.63;;;3.87;;
42600;SDS011;28229;48.856;9.088;2024-03-23T06:21:46;4.03;;;3.60;;
42600;SDS011;28229;48.856;9.088;2024-03-23T06:24:12;3.73;;;3.20;;
42600;SDS011;28229;48.856;9.088;2024-03-23T06:26:38;5.63;;;3.10;;
42600;SDS011;28229;48.856;9.088;2024-03-23T06:29:04;4.30;;;3.17;;
42600;SDS011;28229;48.856;9.088;2024-03-23T06:31:31;3.47;;;2.80;;
42600;SDS011;28229;48.856;9.088;2024-03-23T06:33:57;2.40;;;2.20;;
42600;SDS011;28229;48.856;9.088;2024-03-23T06:36:23;3.57;;;2.33;;
42600;SDS011;28229;48.856;9.088;2024-03-23T06:38:50;2.20;;;2.00;;
42600;SDS011;28229;48.856;9.088;2024-03-23T06:41:16;2.00;;;1.80;;
42600;SDS011;28229;48.856;9.088;2024-03-23T06:43:43;1.73;;;1.63;;
42600;SDS011;28229;48.856;9.088;2024-03-23T06:46:09;1.50;;;1.40;;
42600;SDS011;28229;48.856;9.088;2024-03-23T06:48:35;1.30;;;1.17;;
42600;SDS011;28229;48.856;9.088;2024-03-23T06:51:01;1.30;;;1.20;;
42600;SDS011;28229;48.856;9.088;2024-03-23T06:53:28;0.90;;;0.90;;
42600;SDS011;28229;48.856;9.088;2024-03-23T06:55:54;1.37;;;1.27;;
42600;SDS011;28229;48.856;9.088;2024-03-23T06:58:21;1.73;;;1.20;;
42600;SDS011;28229;48.856;9.088;2024-03-23T07:00:49;1.17;;;1.13;;
42600;SDS011;28229;48.856;9.088;2024-03-23T07:03:18;1.50;;;1.20;;
42600;SDS011;28229;48.856;9.088;2024-03-23T07:05:44;1.03;;;0.90;;
42600;SDS011;28229;48.856;9.088;2024-03-23T07:08:12;1.13;;;1.03;;
42600;SDS011;28229;48.856;9.088;2024-03-23T07:10:41;9.53;;;2.57;;
42600;SDS011;28229;48.856;9.088;2024-03-23T07:13:07;1.33;;;1.23;;
42600;SDS011;28229;48.856;9.088;2024-03-23T07:15:33;1.17;;;1.10;;
42600;SDS011;28229;48.856;9.088;2024-03-23T07:18:00;1.00;;;1.00;;
42600;SDS011;28229;48.856;9.088;2024-03-23T07:20:26;0.90;;;0.90;;
42600;SDS011;28229;48.856;9.088;2024-03-23T07:22:52;1.10;;;1.10;;
42600;SDS011;28229;48.856;9.088;2024-03-23T07:25:19;1.10;;;1.10;;
42600;SDS011;28229;48.856;9.088;2024-03-23T07:27:47;0.90;;;0.90;;
42600;SDS011;28229;48.856;9.088;2024-03-23T07:30:13;1.00;;;1.00;;
42600;SDS011;28229;48.856;9.088;2024-03-23T07:32:39;0.70;;;0.70;;
42600;SDS011;28229;48.856;9.088;2024-03-23T07:35:05;0.70;;;0.70;;
42600;SDS011;28229;48.856;9.088;2024-03-23T07:37:32;0.93;;;0.70;;
42600;SDS011;28229;48.856;9.088;2024-03-23T07:39:58;1.93;;;1.13;;
42600;SDS011;28229;48.856;9.088;2024-03-23T07:42:25;0.60;;;0.60;;
42600;SDS011;28229;48.856;9.088;2024-03-23T07:44:52;0.50;;;0.50;;
42600;SDS011;28229;48.856;9.088;2024-03-23T07:47:20;0.60;;;0.60;;
42600;SDS011;28229;48.856;9.088;2024-03-23T07:49:47;0.50;;;0.50;;
42600;SDS011;28229;48.856;9.088;2024-03-23T07:52:13;0.47;;;0.47;;
42600;SDS011;28229;48.856;9.088;2024-03-23T07:54:40;1.17;;;0.60;;
42600;SDS011;28229;48.856;9.088;2024-03-23T07:57:07;0.87;;;0.87;;
42600;SDS011;28229;48.856;9.088;2024-03-23T07:59:33;1.00;;;1.00;;
42600;SDS011;28229;48.856;9.088;2024-03-23T08:02:00;0.73;;;0.50;;
42600;SDS011;28229;48.856;9.088;2024-03-23T08:04:27;0.70;;;0.70;;
42600;SDS011;28229;48.856;9.088;2024-03-23T08:06:53;0.70;;;0.70;;
42600;SDS011;28229;48.856;9.088;2024-03-23T08:09:19;0.90;;;0.50;;
42600;SDS011;28229;48.856;9.088;2024-03-23T08:11:46;0.40;;;0.40;;
42600;SDS011;28229;48.856;9.088;2024-03-23T08:14:12;0.57;;;0.57;;
42600;SDS011;28229;48.856;9.088;2024-03-23T08:16:38;1.47;;;0.60;;
42600;SDS011;28229;48.856;9.088;2024-03-23T08:19:04;0.70;;;0.70;;
42600;SDS011;28229;48.856;9.088;2024-03-23T08:21:34;0.80;;;0.80;;
42600;SDS011;28229;48.856;9.088;2024-03-23T08:24:00;0.50;;;0.50;;
42600;SDS011;28229;48.856;9.088;2024-03-23T08:26:26;0.70;;;0.70;;
42600;SDS011;28229;48.856;9.088;2024-03-23T08:28:52;0.77;;;0.60;;
42600;SDS011;28229;48.856;9.088;2024-03-23T08:31:18;0.57;;;0.57;;
42600;SDS011;28229;48.856;9.088;2024-03-23T08:33:45;0.50;;;0.50;;
42600;SDS011;28229;48.856;9.088;2024-03-23T08:36:11;1.07;;;0.70;;
42600;SDS011;28229;48.856;9.088;2024-03-23T08:38:43;2.07;;;1.30;;
42600;SDS011;28229;48.856;9.088;2024-03-23T08:41:09;1.97;;;1.30;;
42600;SDS011;28229;48.856;9.088;2024-03-23T08:43:37;1.73;;;1.00;;
42600;SDS011;28229;48.856;9.088;2024-03-23T08:46:08;10.17;;;3.40;;
42600;SDS011;28229;48.856;9.088;2024-03-23T08:48:36;1.93;;;1.30;;
42600;SDS011;28229;48.856;9.088;2024-03-23T08:51:04;5.00;;;2.00;;
42600;SDS011;28229;48.856;9.088;2024-03-23T08:53:32;5.23;;;1.67;;
42600;SDS011;28229;48.856;9.088;2024-03-23T08:55:59;2.77;;;1.73;;
42600;SDS011;28229;48.856;9.088;2024-03-23T08:58:27;3.53;;;1.93;;
42600;SDS011;28229;48.856;9.088;2024-03-23T09:00:54;3.20;;;1.73;;
42600;SDS011;28229;48.856;9.088;2024-03-23T09:03:22;4.80;;;1.60;;
42600;SDS011;28229;48.856;9.088;2024-03-23T09:05:50;4.23;;;1.90;;
42600;SDS011;28229;48.856;9.088;2024-03-23T09:08:17;4.03;;;2.07;;
42600;SDS011;28229;48.856;9.088;2024-03-23T09:10:44;5.83;;;2.27;;
42600;SDS011;28229;48.856;9.088;2024-03-23T09:13:10;3.00;;;2.10;;
42600;SDS011;28229;48.856;9.088;2024-03-23T09:15:37;2.03;;;1.83;;
42600;SDS011;28229;48.856;9.088;2024-03-23T09:18:11;2.90;;;2.10;;
42600;SDS011;28229;48.856;9.088;2024-03-23T09:20:37;3.93;;;2.53;;
42600;SDS011;28229;48.856;9.088;2024-03-23T09:23:03;4.13;;;2.40;;
42600;SDS011;28229;48.856;9.088;2024-03-23T09:25:30;3.70;;;2.27;;
42600;SDS011;28229;48.856;9.088;2024-03-23T09:27:56;6.77;;;2.60;;
42600;SDS011;28229;48.856;9.088;2024-03-23T09:30:22;5.63;;;2.10;;
42600;SDS011;28229;48.856;9.088;2024-03-23T09:32:48;5.20;;;2.30;;
42600;SDS011;28229;48.856;9.088;2024-03-23T09:35:14;4.50;;;2.20;;
42600;SDS011;28229;48.856;9.088;2024-03-23T09:37:40;3.97;;;1.93;;
42600;SDS011;28229;48.856;9.088;2024-03-23T09:40:10;3.03;;;2.13;;
42600;SDS011;28229;48.856;9.088;2024-03-23T09:42:39;3.73;;;2.23;;
42600;SDS011;28229;48.856;9.088;2024-03-23T09:45:06;3.03;;;2.20;;
42600;SDS011;28229;48.856;9.088;2024-03-23T09:47:35;5.60;;;2.47;;
42600;SDS011;28229;48.856;9.088;2024-03-23T09:50:01;4.53;;;2.30;;
42600;SDS011;28229;48.856;9.088;2024-03-23T09:52:27;4.37;;;2.83;;
42600;SDS011;28229;48.856;9.088;2024-03-23T09:54:53;6.53;;;2.63;;
42600;SDS011;28229;48.856;9.088;2024-03-23T09:57:20;4.83;;;2.40;;
42600;SDS011;28229;48.856;9.088;2024-03-23T09:59:46;4.73;;;2.70;;
42600;SDS011;28229;48.856;9.088;2024-03-23T10:02:12;6.13;;;3.20;;
42600;SDS011;28229;48.856;9.088;2024-03-23T10:04:42;3.80;;;2.80;;
42600;SDS011;28229;48.856;9.088;2024-03-23T10:07:15;5.30;;;2.77;;
42600;SDS011;28229;48.856;9.088;2024-03-23T10:09:44;4.80;;;2.80;;
42600;SDS011;28229;48.856;9.088;2024-03-23T10:12:11;6.73;;;3.27;;
42600;SDS011;28229;48.856;9.088;2024-03-23T10:14:40;4.60;;;2.50;;
42600;SDS011;28229;48.856;9.088;2024-03-23T10:17:19;3.70;;;2.70;;
42600;SDS011;28229;48.856;9.088;2024-03-23T10:19:50;3.80;;;2.60;;
42600;SDS011;28229;48.856;9.088;2024-03-23T10:22:21;6.00;;;3.00;;
42600;SDS011;28229;48.856;9.088;2024-03-23T10:24:50;4.50;;;2.93;;
42600;SDS011;28229;48.856;9.088;2024-03-23T10:27:17;6.13;;;3.07;;
42600;SDS011;28229;48.856;9.088;2024-03-23T10:29:47;5.40;;;2.93;;
42600;SDS011;28229;48.856;9.088;2024-03-23T10:32:15;4.20;;;2.60;;
42600;SDS011;28229;48.856;9.088;2024-03-23T10:34:42;4.73;;;2.70;;
42600;SDS011;28229;48.856;9.088;2024-03-23T10:37:09;5.40;;;3.10;;
42600;SDS011;28229;48.856;9.088;2024-03-23T10:39:37;5.37;;;3.10;;
42600;SDS011;28229;48.856;9.088;2024-03-23T10:42:08;6.33;;;2.93;;
42600;SDS011;28229;48.856;9.088;2024-03-23T10:44:36;6.40;;;3.20;;
42600;SDS011;28229;48.856;9.088;2024-03-23T10:47:02;5.50;;;3.10;;
42600;SDS011;28229;48.856;9.088;2024-03-23T10:49:31;7.00;;;3.27;;
42600;SDS011;28229;48.856;9.088;2024-03-23T10:51:59;9.17;;;3.60;;
42600;SDS011;28229;48.856;9.088;2024-03-23T10:54:26;6.97;;;3.87;;
42600;SDS011;28229;48.856;9.088;2024-03-23T10:57:03;9.07;;;3.93;;
42600;SDS011;28229;48.856;9.088;2024-03-23T10:59:31;6.87;;;4.03;;
42600;SDS011;28229;48.856;9.088;2024-03-23T11:01:57;6.93;;;3.70;;
42600;SDS011;28229;48.856;9.088;2024-03-23T11:04:31;6.13;;;3.80;;
42600;SDS011;28229;48.856;9.088;2024-03-23T11:06:59;6.37;;;3.40;;
42600;SDS011;28229;48.856;9.088;2024-03-23T11:12:16;5.50;;;3.33;;
42600;SDS011;28229;48.856;9.088;2024-03-23T11:14:58;5.23;;;3.50;;
42600;SDS011;28229;48.856;9.088;2024-03-23T11:17:29;5.67;;;3.37;;
42600;SDS011;28229;48.856;9.088;2024-03-23T11:20:05;4.53;;;3.00;;
42600;SDS011;28229;48.856;9.088;2024-03-23T11:22:42;3.60;;;2.70;;
42600;SDS011;28229;48.856;9.088;2024-03-23T11:27:44;7.73;;;3.33;;
42600;SDS011;28229;48.856;9.088;2024-03-23T11:30:12;3.10;;;2.80;;
42600;SDS011;28229;48.856;9.088;2024-03-23T11:32:39;3.57;;;2.80;;
42600;SDS011;28229;48.856;9.088;2024-03-23T11:35:06;3.17;;;2.63;;
42600;SDS011;28229;48.856;9.088;2024-03-23T11:37:32;3.57;;;2.47;;
42600;SDS011;28229;48.856;9.088;2024-03-23T11:40:19;6.90;;;2.60;;
42600;SDS011;28229;48.856;9.088;2024-03-23T11:42:45;4.60;;;2.53;;
42600;SDS011;28229;48.856;9.088;2024-03-23T11:45:12;2.83;;;2.20;;
42600;SDS011;28229;48.856;9.088;2024-03-23T11:47:38;2.83;;;2.30;;
42600;SDS011;28229;48.856;9.088;2024-03-23T11:50:04;3.10;;;2.43;;
42600;SDS011;28229;48.856;9.088;2024-03-23T11:52:31;3.30;;;2.30;;
42600;SDS011;28229;48.856;9.088;2024-03-23T11:55:04;4.33;;;2.60;;
42600;SDS011;28229;48.856;9.088;2024-03-23T11:57:33;4.47;;;1.97;;
42600;SDS011;28229;48.856;9.088;2024-03-23T12:00:09;3.17;;;1.77;;
42600;SDS011;28229;48.856;9.088;2024-03-23T12:02:46;5.43;;;1.90;;
42600;SDS011;28229;48.856;9.088;2024-03-23T12:05:15;6.00;;;1.70;;
42600;SDS011;28229;48.856;9.088;2024-03-23T12:07:42;14.80;;;4.27;;
42600;SDS011;28229;48.856;9.088;2024-03-23T12:10:09;5.70;;;2.27;;
42600;SDS011;28229;48.856;9.088;2024-03-23T12:12:35;3.50;;;1.80;;
42600;SDS011;28229;48.856;9.088;2024-03-23T12:15:05;5.53;;;1.40;;
42600;SDS011;28229;48.856;9.088;2024-03-23T12:17:34;4.23;;;1.40;;
42600;SDS011;28229;48.856;9.088;2024-03-23T12:20:01;5.23;;;1.80;;
42600;SDS011;28229;48.856;9.088;2024-03-23T12:22:27;4.90;;;1.93;;
42600;SDS011;28229;48.856;9.088;2024-03-23T12:24:55;6.07;;;1.70;;
42600;SDS011;28229;48.856;9.088;2024-03-23T12:27:22;4.33;;;1.80;;
42600;SDS011;28229;48.856;9.088;2024-03-23T12:29:48;4.53;;;1.80;;
42600;SDS011;28229;48.856;9.088;2024-03-23T12:32:15;2.83;;;1.80;;
42600;SDS011;28229;48.856;9.088;2024-03-23T12:34:42;4.57;;;1.90;;
42600;SDS011;28229;48.856;9.088;2024-03-23T12:37:08;4.07;;;1.90;;
42600;SDS011;28229;48.856;9.088;2024-03-23T12:39:35;3.53;;;1.77;;
42600;SDS011;28229;48.856;9.088;2024-03-23T12:42:02;4.03;;;1.90;;
42600;SDS011;28229;48.856;9.088;2024-03-23T12:44:29;6.27;;;2.17;;
42600;SDS011;28229;48.856;9.088;2024-03-23T12:46:55;4.40;;;2.10;;
42600;SDS011;28229;48.856;9.088;2024-03-23T12:49:21;5.30;;;2.10;;
42600;SDS011;28229;48.856;9.088;2024-03-23T12:51:54;3.73;;;2.10;;
42600;SDS011;28229;48.856;9.088;2024-03-23T12:54:22;5.33;;;2.00;;
42600;SDS011;28229;48.856;9.088;2024-03-23T12:56:49;5.20;;;2.07;;
42600;SDS011;28229;48.856;9.088;2024-03-23T12:59:16;4.70;;;2.10;;
42600;SDS011;28229;48.856;9.088;2024-03-23T13:01:44;7.73;;;2.30;;
42600;SDS011;28229;48.856;9.088;2024-03-23T13:04:11;4.90;;;2.20;;
42600;SDS011;28229;48.856;9.088;2024-03-23T13:06:37;5.23;;;2.20;;
42600;SDS011;28229;48.856;9.088;2024-03-23T13:09:04;4.97;;;1.93;;
42600;SDS011;28229;48.856;9.088;2024-03-23T13:11:31;4.83;;;1.90;;
42600;SDS011;28229;48.856;9.088;2024-03-23T13:13:57;4.10;;;1.60;;
42600;SDS011;28229;48.856;9.088;2024-03-23T13:16:23;5.90;;;1.83;;
42600;SDS011;28229;48.856;9.088;2024-03-23T13:18:50;6.63;;;1.93;;
42600;SDS011;28229;48.856;9.088;2024-03-23T13:21:16;5.37;;;1.67;;
42600;SDS011;28229;48.856;9.088;2024-03-23T13:23:42;5.83;;;2.00;;
42600;SDS011;28229;48.856;9.088;2024-03-23T13:26:13;3.97;;;1.70;;
42600;SDS011;28229;48.856;9.088;2024-03-23T13:28:40;4.00;;;1.67;;
42600;SDS011;28229;48.856;9.088;2024-03-23T13:31:07;3.27;;;1.57;;
42600;SDS011;28229;48.856;9.088;2024-03-23T13:33:34;5.30;;;1.80;;
42600;SDS011;28229;48.856;9.088;2024-03-23T13:36:00;3.60;;;1.70;;
42600;SDS011;28229;48.856;9.088;2024-03-23T13:38:28;5.77;;;1.60;;
42600;SDS011;28229;48.856;9.088;2024-03-23T13:41:00;3.73;;;1.60;;
42600;SDS011;28229;48.856;9.088;2024-03-23T13:43:27;3.53;;;1.80;;
42600;SDS011;28229;48.856;9.088;2024-03-23T13:45:56;3.63;;;1.60;;
42600;SDS011;28229;48.856;9.088;2024-03-23T13:48:23;3.07;;;1.20;;
42600;SDS011;28229;48.856;9.088;2024-03-23T13:51:00;4.47;;;1.50;;
42600;SDS011;28229;48.856;9.088;2024-03-23T13:53:30;4.63;;;1.47;;
42600;SDS011;28229;48.856;9.088;2024-03-23T13:55:58;2.77;;;1.33;;
42600;SDS011;28229;48.856;9.088;2024-03-23T13:58:24;2.83;;;1.10;;
42600;SDS011;28229;48.856;9.088;2024-03-23T14:00:55;3.70;;;1.40;;
42600;SDS011;28229;48.856;9.088;2024-03-23T14:03:23;2.00;;;1.00;;
42600;SDS011;28229;48.856;9.088;2024-03-23T14:05:49;2.57;;;1.40;;
42600;SDS011;28229;48.856;9.088;2024-03-23T14:08:15;4.37;;;1.43;;
42600;SDS011;28229;48.856;9.088;2024-03-23T14:10:41;3.03;;;1.40;;
42600;SDS011;28229;48.856;9.088;2024-03-23T14:13:09;3.43;;;1.50;;
42600;SDS011;28229;48.856;9.088;2024-03-23T14:15:35;2.83;;;1.37;;
42600;SDS011;28229;48.856;9.088;2024-03-23T14:18:02;1.30;;;1.10;;
42600;SDS011;28229;48.856;9.088;2024-03-23T14:20:29;4.53;;;1.50;;
42600;SDS011;28229;48.856;9.088;2024-03-23T14:22:55;1.83;;;1.10;;
42600;SDS011;28229;48.856;9.088;2024-03-23T14:25:22;2.83;;;1.00;;
42600;SDS011;28229;48.856;9.088;2024-03-23T14:27:54;2.03;;;1.10;;
42600;SDS011;28229;48.856;9.088;2024-03-23T14:30:20;1.40;;;0.87;;
42600;SDS011;28229;48.856;9.088;2024-03-23T14:32:46;2.10;;;1.10;;
42600;SDS011;28229;48.856;9.088;2024-03-23T14:35:12;3.37;;;1.23;;
42600;SDS011;28229;48.856;9.088;2024-03-23T14:37:38;2.90;;;1.10;;
42600;SDS011;28229;48.856;9.088;2024-03-23T14:40:05;4.57;;;1.03;;
42600;SDS011;28229;48.856;9.088;2024-03-23T14:42:32;2.17;;;1.10;;
42600;SDS011;28229;48.856;9.088;2024-03-23T14:44:58;2.83;;;1.20;;
42600;SDS011;28229;48.856;9.088;2024-03-23T14:47:25;1.53;;;1.10;;
42600;SDS011;28229;48.856;9.088;2024-03-23T14:49:51;2.30;;;1.00;;
42600;SDS011;28229;48.856;9.088;2024-03-23T14:52:18;1.70;;;1.10;;
42600;SDS011;28229;48.856;9.088;2024-03-23T14:54:46;2.77;;;1.30;;
42600;SDS011;28229;48.856;9.088;2024-03-23T14:57:12;5.07;;;1.37;;
42600;SDS011;28229;48.856;9.088;2024-03-23T14:59:38;3.73;;;1.27;;
42600;SDS011;28229;48.856;9.088;2024-03-23T15:02:05;1.33;;;1.00;;
42600;SDS011;28229;48.856;9.088;2024-03-23T15:04:32;2.60;;;1.00;;
42600;SDS011;28229;48.856;9.088;2024-03-23T15:06:58;2.70;;;1.20;;
42600;SDS011;28229;48.856;9.088;2024-03-23T15:09:24;2.97;;;1.30;;
42600;SDS011;28229;48.856;9.088;2024-03-23T15:11:50;1.10;;;0.90;;
42600;SDS011;28229;48.856;9.088;2024-03-23T15:14:16;2.57;;;1.00;;
42600;SDS011;28229;48.856;9.088;2024-03-23T15:16:43;3.27;;;1.23;;
42600;SDS011;28229;48.856;9.088;2024-03-23T15:19:13;1.43;;;0.90;;
42600;SDS011;28229;48.856;9.088;2024-03-23T15:21:39;1.57;;;1.10;;
42600;SDS011;28229;48.856;9.088;2024-03-23T15:24:05;2.53;;;1.10;;
42600;SDS011;28229;48.856;9.088;2024-03-23T15:26:31;1.20;;;1.10;;
42600;SDS011;28229;48.856;9.088;2024-03-23T15:28:58;1.57;;;1.20;;
42600;SDS011;28229;48.856;9.088;2024-03-23T15:31:24;1.83;;;1.00;;
42600;SDS011;28229;48.856;9.088;2024-03-23T15:33:51;0.90;;;0.90;;
42600;SDS011;28229;48.856;9.088;2024-03-23T15:36:17;4.10;;;1.30;;
42600;SDS011;28229;48.856;9.088;2024-03-23T15:38:44;1.20;;;1.00;;
42600;SDS011;28229;48.856;9.088;2024-03-23T15:41:11;3.60;;;0.90;;
42600;SDS011;28229;48.856;9.088;2024-03-23T15:43:37;3.03;;;1.00;;